Česky Dansk Deutsch English Español Suomi Français Magyar Italiano Nederlands norsk Polski Português svenska Türkçe

 

Het Weer

Chalons-Vatry (Frankrijk)

00:00, 21 augustus 2016 (GMT)

NWNNE
WE
SWSSE
Home            
Chalons-Vatry Suippes Range Met Troyes St-Dizier Reims Toul / Rosieres Chatillon-Sur-Seine Melun Charleville Auxerre Paris-Aeroport Charles De Gaulle Paris / Le Bourget Paris-Orly Creil Fafb Nancy / Ochey Paris Met Center Saint-Quentin Villacoublay Bertrix Bel-Afb Metz / Frescaty Nancy / Essey Metz-Nancy-Lorraine St-Hubert

Om een weerknop op uw website of weblog te plaatsen, copieer onderstaande code en plak die in uw pagina. In het eerste vakje staat HTML-code, in het tweede vakje UBB-code.


Add to Google

Details

Wind speed:3 bf, 8 kn, 4.1 m/s, 9.2 miles/h, 14.8 km/h
Wind direction:SW, 220°
Visibility:Greater than 10000 m, 10 km, 32800 ft, 6.2 miles
Clouds:CAVOC
Temperature:13°C, 55°F
Dew-point:11°C, 52°F
Atmospheric pressure:1018 hPa, 763.6 mmHg, 30.06 inHg, 1.005 atm
Relative humidity:87.6 %
METAR:LFOK 210000Z AUTO 22008KT CAVOK 13/11 Q1018 NOSIG

Snelkoppelingen

Actuele weersinformatie van de hele wereld. Voeg locaties toe met het plus (+) symbool. Deze snelkoppelingen kunnen worden toegevoegd aan Google.

Lid van de Technetium groep

website free tracking
StatCounter NetStat W3C Validator

07-10-2022 07:50:48
astro.technetium.be money.technetium.be phote.technetium.be tafeltennistafel.technetium.be www.ligfiets.net